createdAt,value
2018-10-02T00:00:41.092Z,101159.48
2018-10-02T00:03:08.268Z,101159.03
2018-10-02T00:05:35.404Z,101159.46
2018-10-02T00:08:02.537Z,101162.48
2018-10-02T00:10:29.724Z,101165.50
2018-10-02T00:13:02.771Z,101165.50
2018-10-02T00:15:29.960Z,101170.62
2018-10-02T00:17:57.130Z,101168.02
2018-10-02T00:20:24.286Z,101161.88
2018-10-02T00:22:51.549Z,101164.47
2018-10-02T00:25:18.732Z,101171.83
2018-10-02T00:27:45.892Z,101171.39
2018-10-02T00:30:13.090Z,101166.58
2018-10-02T00:32:40.247Z,101163.94
2018-10-02T00:35:07.450Z,101165.21
2018-10-02T00:37:34.640Z,101166.50
2018-10-02T00:40:01.804Z,101158.61
2018-10-02T00:42:28.990Z,101161.67
2018-10-02T00:44:56.184Z,101163.80
2018-10-02T00:47:23.324Z,101172.09
2018-10-02T00:49:50.600Z,101171.23
2018-10-02T00:52:17.793Z,101165.99
2018-10-02T00:54:44.921Z,101168.13
2018-10-02T00:57:12.064Z,101167.68
2018-10-02T00:59:39.327Z,101172.45
2018-10-02T01:02:06.485Z,101171.56
2018-10-02T01:04:33.663Z,101181.52
2018-10-02T01:07:00.855Z,101169.78
2018-10-02T01:09:27.987Z,101170.69
2018-10-02T01:11:55.100Z,101173.40
2018-10-02T01:14:22.322Z,101171.68
2018-10-02T01:16:49.435Z,101166.44
2018-10-02T01:19:16.557Z,101170.77
2018-10-02T01:21:43.735Z,101169.95
2018-10-02T01:24:10.899Z,101170.41
2018-10-02T01:26:38.105Z,101173.47
2018-10-02T01:29:05.465Z,101177.88
2018-10-02T01:31:32.632Z,101176.58
2018-10-02T01:33:59.787Z,101176.11
2018-10-02T01:36:27.001Z,101171.31
2018-10-02T01:38:54.192Z,101175.22
2018-10-02T01:41:21.356Z,101176.50
2018-10-02T01:43:48.551Z,101172.58
2018-10-02T01:46:15.715Z,101173.48
2018-10-02T01:48:42.909Z,101172.17
2018-10-02T01:51:10.111Z,101175.23
2018-10-02T01:53:37.255Z,101173.88
2018-10-02T01:56:04.433Z,101174.36
2018-10-02T01:58:31.635Z,101177.37
2018-10-02T02:00:58.804Z,101173.81
2018-10-02T02:03:25.941Z,101176.87
2018-10-02T02:05:53.141Z,101174.70
2018-10-02T02:08:20.355Z,101177.30
2018-10-02T02:10:47.493Z,101178.61
2018-10-02T02:13:14.720Z,101183.80
2018-10-02T02:15:41.962Z,101179.92
2018-10-02T02:18:09.116Z,101188.09
2018-10-02T02:20:36.348Z,101187.68
2018-10-02T02:23:03.500Z,101181.98
2018-10-02T02:25:30.686Z,101188.98
2018-10-02T02:27:57.921Z,101186.37
2018-10-02T02:30:25.077Z,101194.20
2018-10-02T02:32:52.264Z,101189.00
2018-10-02T02:35:19.559Z,101188.53
2018-10-02T02:37:46.786Z,101187.59
2018-10-02T02:40:13.972Z,101192.90
2018-10-02T02:42:41.176Z,101185.94
2018-10-02T02:45:08.508Z,101188.89
2018-10-02T02:47:41.504Z,101200.63
2018-10-02T02:50:14.487Z,101193.15
2018-10-02T02:52:59.407Z,101194.00
2018-10-02T02:55:26.866Z,101197.43
2018-10-02T02:57:54.011Z,101200.00
2018-10-02T03:00:21.228Z,101202.19
2018-10-02T03:02:48.383Z,101192.94
2018-10-02T03:05:15.541Z,101194.30
2018-10-02T03:07:42.827Z,101195.16
2018-10-02T03:10:09.974Z,101197.68
2018-10-02T03:12:37.121Z,101196.74
2018-10-02T03:15:04.464Z,101195.83
2018-10-02T03:17:31.671Z,101197.08
2018-10-02T03:19:58.840Z,101200.02
2018-10-02T03:22:26.020Z,101202.72
2018-10-02T03:24:53.180Z,101198.23
2018-10-02T03:27:20.332Z,101194.22
2018-10-02T03:29:47.543Z,101195.45
2018-10-02T03:32:14.753Z,101195.47
2018-10-02T03:34:41.885Z,101198.08
2018-10-02T03:37:09.088Z,101194.10
2018-10-02T03:39:36.411Z,101194.92
2018-10-02T03:42:03.613Z,101198.00
2018-10-02T03:44:30.804Z,101201.02
2018-10-02T03:46:57.940Z,101193.15
2018-10-02T03:49:25.084Z,101193.67
2018-10-02T03:51:52.892Z,101193.56
2018-10-02T03:54:20.012Z,101194.88
2018-10-02T03:56:47.264Z,101188.02
2018-10-02T03:59:14.474Z,101188.03
2018-10-02T04:01:41.624Z,101192.23
2018-10-02T04:04:08.744Z,101184.98
2018-10-02T04:06:35.932Z,101179.71
2018-10-02T04:09:04.878Z,101179.27
2018-10-02T04:11:32.017Z,101183.11
2018-10-02T04:13:59.159Z,101187.44
2018-10-02T04:16:26.269Z,101190.52
2018-10-02T04:18:53.420Z,101193.11
2018-10-02T04:21:32.141Z,101191.28
2018-10-02T04:23:59.245Z,101200.30
2018-10-02T04:26:26.500Z,101198.98
2018-10-02T04:28:53.668Z,101200.72
2018-10-02T04:31:20.784Z,101199.33
2018-10-02T04:33:47.973Z,101197.98
2018-10-02T04:36:15.068Z,101207.44
2018-10-02T04:38:42.229Z,101203.14
2018-10-02T04:41:09.460Z,101203.11
2018-10-02T04:43:36.732Z,101203.97
2018-10-02T04:46:04.021Z,101201.03
2018-10-02T04:48:31.152Z,101205.88
2018-10-02T04:50:58.437Z,101214.94
2018-10-02T04:53:25.589Z,101210.70
2018-10-02T04:55:52.877Z,101209.29
2018-10-02T04:58:20.036Z,101217.59
2018-10-02T05:00:47.140Z,101220.59
2018-10-02T05:03:14.383Z,101213.30
2018-10-02T05:05:41.580Z,101215.78
2018-10-02T05:08:08.745Z,101217.27
2018-10-02T05:10:35.911Z,101223.30
2018-10-02T05:13:03.201Z,101226.86
2018-10-02T05:15:30.328Z,101231.94
2018-10-02T05:17:57.565Z,101228.49
2018-10-02T05:20:24.836Z,101227.61
2018-10-02T05:22:53.089Z,101235.52
2018-10-02T05:25:20.256Z,101231.65
2018-10-02T05:27:47.550Z,101239.55
2018-10-02T05:30:14.703Z,101237.81
2018-10-02T05:32:41.863Z,101236.50
2018-10-02T05:35:09.113Z,101227.00
2018-10-02T05:37:36.169Z,101231.47
2018-10-02T05:40:04.109Z,101226.86
2018-10-02T05:42:31.266Z,101231.60
2018-10-02T05:44:58.380Z,101231.24
2018-10-02T05:47:25.514Z,101228.78
2018-10-02T05:49:52.667Z,101232.27
2018-10-02T05:52:19.797Z,101237.98
2018-10-02T05:54:46.915Z,101238.98
2018-10-02T05:57:14.179Z,101236.80
2018-10-02T05:59:41.303Z,101241.18
2018-10-02T06:02:08.526Z,101247.39
2018-10-02T06:04:35.717Z,101246.15
2018-10-02T06:07:02.926Z,101251.01
2018-10-02T06:09:30.109Z,101259.30
2018-10-02T06:11:57.316Z,101256.40
2018-10-02T06:14:24.591Z,101259.91
2018-10-02T06:16:51.793Z,101264.73
2018-10-02T06:19:18.992Z,101267.02
2018-10-02T06:21:46.271Z,101274.02
2018-10-02T06:24:13.436Z,101271.89
2018-10-02T06:26:40.840Z,101271.10
2018-10-02T06:29:08.090Z,101271.19
2018-10-02T06:31:35.234Z,101269.95
2018-10-02T06:34:02.438Z,101259.58
2018-10-02T06:36:29.553Z,101265.32
2018-10-02T06:38:56.719Z,101261.44
2018-10-02T06:41:24.518Z,101267.14
2018-10-02T06:43:51.664Z,101262.77
2018-10-02T06:46:18.901Z,101262.77
2018-10-02T06:48:46.033Z,101269.72
2018-10-02T06:51:13.293Z,101266.66
2018-10-02T06:53:40.369Z,101266.20
2018-10-02T06:56:07.617Z,101258.36
2018-10-02T06:58:34.761Z,101257.49
2018-10-02T07:01:01.860Z,101261.41
2018-10-02T07:03:29.894Z,101264.41
2018-10-02T07:05:57.032Z,101256.55
2018-10-02T07:08:24.202Z,101255.23
2018-10-02T07:10:51.429Z,101253.84
2018-10-02T07:13:18.528Z,101255.45
2018-10-02T07:15:45.752Z,101254.58
2018-10-02T07:18:12.901Z,101244.91
2018-10-02T07:20:40.084Z,101241.80
2018-10-02T07:23:07.189Z,101240.59
2018-10-02T07:25:34.330Z,101242.28
2018-10-02T07:28:01.579Z,101237.47
2018-10-02T07:30:28.624Z,101242.28
2018-10-02T07:32:55.899Z,101230.51
2018-10-02T07:35:23.109Z,101236.60
2018-10-02T07:37:50.207Z,101233.11
2018-10-02T07:40:17.421Z,101228.23
2018-10-02T07:42:44.567Z,101232.16
2018-10-02T07:45:11.694Z,101243.41
2018-10-02T07:47:38.884Z,101236.30
2018-10-02T07:50:06.076Z,101236.11
2018-10-02T07:52:33.178Z,101230.17
2018-10-02T07:55:00.328Z,101230.76
2018-10-02T07:57:27.541Z,101230.05
2018-10-02T07:59:54.666Z,101225.17
2018-10-02T08:02:21.948Z,101230.03
2018-10-02T08:04:49.098Z,101227.05
2018-10-02T08:07:16.140Z,101230.55
2018-10-02T08:09:43.361Z,101229.16
2018-10-02T08:12:10.523Z,101232.55
2018-10-02T08:14:37.618Z,101220.72
2018-10-02T08:17:04.793Z,101216.49
2018-10-02T08:19:31.940Z,101214.45
2018-10-02T08:21:59.089Z,101214.73
2018-10-02T08:24:26.325Z,101214.95
2018-10-02T08:26:53.477Z,101211.86
2018-10-02T08:29:20.710Z,101206.30
2018-10-02T08:31:47.901Z,101206.89
2018-10-02T08:34:15.024Z,101199.80
2018-10-02T08:36:42.256Z,101190.44
2018-10-02T08:39:10.216Z,101186.37
2018-10-02T08:41:37.688Z,101177.17
2018-10-02T08:44:04.860Z,101181.30
2018-10-02T08:46:32.029Z,101169.73
2018-10-02T08:48:59.175Z,101161.24
2018-10-02T08:51:26.286Z,101159.53
2018-10-02T08:53:53.508Z,101160.84
2018-10-02T08:56:20.599Z,101151.49
2018-10-02T08:58:47.720Z,101152.36
2018-10-02T09:01:14.902Z,101142.34
2018-10-02T09:03:42.132Z,101135.75
2018-10-02T09:06:09.255Z,101142.47
2018-10-02T09:08:36.488Z,101143.27
2018-10-02T09:11:03.607Z,101140.38
2018-10-02T09:13:30.747Z,101149.06
2018-10-02T09:15:58.255Z,101150.17
2018-10-02T09:18:25.443Z,101150.50
2018-10-02T09:20:52.990Z,101147.12
2018-10-02T09:23:20.295Z,101151.63
2018-10-02T09:25:47.505Z,101140.06
2018-10-02T09:28:14.649Z,101135.73
2018-10-02T09:30:47.649Z,101139.63
2018-10-02T09:33:20.442Z,101139.38
2018-10-02T09:35:54.141Z,101130.72
2018-10-02T09:38:27.013Z,101122.90
2018-10-02T09:40:59.932Z,101124.87
2018-10-02T09:43:31.749Z,101125.55
2018-10-02T09:45:59.413Z,101115.91
2018-10-02T09:48:26.754Z,101121.64
2018-10-02T09:50:53.978Z,101105.99
2018-10-02T09:53:21.140Z,101111.27
2018-10-02T09:55:48.328Z,101105.61
2018-10-02T09:58:15.452Z,101103.45
2018-10-02T10:00:48.470Z,101089.81
2018-10-02T10:03:15.540Z,101093.72
2018-10-02T10:05:42.665Z,101099.22
2018-10-02T10:08:09.858Z,101091.27
2018-10-02T10:10:37.072Z,101090.28
2018-10-02T10:13:04.184Z,101084.05
2018-10-02T10:15:31.471Z,101075.59
2018-10-02T10:17:58.740Z,101082.29
2018-10-02T10:20:25.942Z,101076.63
2018-10-02T10:22:53.299Z,101082.81
2018-10-02T10:25:20.456Z,101084.47
2018-10-02T10:27:47.725Z,101077.53
2018-10-02T10:30:15.011Z,101068.22
2018-10-02T10:32:42.257Z,101062.80
2018-10-02T10:35:09.455Z,101075.11
2018-10-02T10:37:36.679Z,101074.88
2018-10-02T10:40:03.945Z,101071.22
2018-10-02T10:42:31.149Z,101063.28
2018-10-02T10:44:58.401Z,101060.99
2018-10-02T10:47:25.556Z,101067.41
2018-10-02T10:49:52.749Z,101054.70
2018-10-02T10:52:19.954Z,101053.02
2018-10-02T10:54:59.609Z,101044.88
2018-10-02T10:57:26.773Z,101030.88
2018-10-02T10:59:53.909Z,101028.34
2018-10-02T11:02:21.073Z,101036.41
2018-10-02T11:04:48.371Z,101043.95
2018-10-02T11:07:15.517Z,101027.39
2018-10-02T11:09:42.659Z,101029.00
2018-10-02T11:12:09.887Z,101018.90
2018-10-02T11:14:37.028Z,101018.58
2018-10-02T11:17:04.163Z,101026.24
2018-10-02T11:19:31.553Z,101025.64
2018-10-02T11:21:58.638Z,101019.17
2018-10-02T11:24:25.809Z,101017.73
2018-10-02T11:26:53.001Z,101025.67
2018-10-02T11:29:20.258Z,101024.15
2018-10-02T11:31:47.447Z,101025.16
2018-10-02T11:34:14.644Z,101011.35
2018-10-02T11:36:41.767Z,101012.88
2018-10-02T11:39:09.134Z,101015.24
2018-10-02T11:41:36.377Z,101003.03
2018-10-02T11:44:03.551Z,101001.73
2018-10-02T11:46:30.643Z,100997.20
2018-10-02T11:48:57.893Z,100993.92
2018-10-02T11:51:25.020Z,100990.19
2018-10-02T11:53:52.129Z,100981.34
2018-10-02T11:56:19.285Z,100973.05
2018-10-02T11:58:46.446Z,100962.67
2018-10-02T12:01:13.916Z,100953.95
2018-10-02T12:03:41.034Z,100940.16
2018-10-02T12:06:08.158Z,100932.28
2018-10-02T12:08:35.270Z,100931.70
2018-10-02T12:11:02.786Z,100923.44
2018-10-02T12:13:30.061Z,100914.73
2018-10-02T12:15:57.069Z,100911.00
2018-10-02T12:18:24.361Z,100905.64
2018-10-02T12:20:51.476Z,100902.30
2018-10-02T12:23:18.582Z,100887.55
2018-10-02T12:25:47.136Z,100881.11
2018-10-02T12:28:14.256Z,100886.12
2018-10-02T12:30:41.411Z,100883.71
2018-10-02T12:33:09.137Z,100876.83
2018-10-02T12:35:36.352Z,100875.78
2018-10-02T12:38:03.513Z,100873.44
2018-10-02T12:40:30.772Z,100882.51
2018-10-02T12:42:58.013Z,100882.14
2018-10-02T12:45:25.120Z,100876.61
2018-10-02T12:47:53.049Z,100871.62
2018-10-02T12:50:20.419Z,100862.19
2018-10-02T12:52:47.639Z,100856.59
2018-10-02T12:55:15.167Z,100846.58
2018-10-02T12:57:42.274Z,100835.03
2018-10-02T13:00:09.437Z,100830.34
2018-10-02T13:02:36.640Z,100824.36
2018-10-02T13:05:03.778Z,100825.36
2018-10-02T13:07:30.891Z,100827.13
2018-10-02T13:09:58.094Z,100820.30
2018-10-02T13:12:25.170Z,100814.98
2018-10-02T13:14:52.343Z,100810.34
2018-10-02T13:17:19.571Z,100807.45
2018-10-02T13:19:46.793Z,100801.44
2018-10-02T13:22:14.217Z,100805.03
2018-10-02T13:24:41.403Z,100795.05
2018-10-02T13:27:08.468Z,100782.56
2018-10-02T13:29:35.570Z,100782.77
2018-10-02T13:32:02.830Z,100769.02
2018-10-02T13:34:29.985Z,100774.84
2018-10-02T13:36:57.117Z,100771.48
2018-10-02T13:39:24.265Z,100783.75
2018-10-02T13:41:51.408Z,100771.51
2018-10-02T13:44:18.499Z,100775.05
2018-10-02T13:46:45.665Z,100762.63
2018-10-02T13:49:12.808Z,100764.39
2018-10-02T13:51:40.061Z,100761.47
2018-10-02T13:54:07.213Z,100763.63
2018-10-02T13:56:34.312Z,100764.67
2018-10-02T13:59:01.461Z,100753.31
2018-10-02T14:01:28.667Z,100766.56
2018-10-02T14:03:55.744Z,100763.07
2018-10-02T14:06:22.852Z,100755.30
2018-10-02T14:08:50.004Z,100743.94
2018-10-02T14:11:17.184Z,100749.20
2018-10-02T14:13:44.301Z,100739.93
2018-10-02T14:16:11.522Z,100737.75
2018-10-02T14:18:38.735Z,100727.83
2018-10-02T14:21:05.961Z,100712.93
2018-10-02T14:23:33.192Z,100719.19
2018-10-02T14:26:00.282Z,100712.63
2018-10-02T14:28:27.436Z,100719.53
2018-10-02T14:30:54.575Z,100715.25
2018-10-02T14:33:21.745Z,100704.31
2018-10-02T14:35:48.869Z,100706.07
2018-10-02T14:38:16.026Z,100696.77
2018-10-02T14:40:43.140Z,100690.70
2018-10-02T14:43:10.359Z,100681.95
2018-10-02T14:45:37.520Z,100681.52
2018-10-02T14:48:04.706Z,100675.38
2018-10-02T14:50:31.831Z,100677.08
2018-10-02T14:52:59.054Z,100677.58
2018-10-02T14:55:26.206Z,100664.83
2018-10-02T14:57:53.323Z,100660.41
2018-10-02T15:00:20.709Z,100661.25
2018-10-02T15:02:48.240Z,100659.05
2018-10-02T15:05:15.404Z,100657.31
2018-10-02T15:07:42.632Z,100665.19
2018-10-02T15:10:09.766Z,100670.42
2018-10-02T15:12:36.883Z,100668.63
2018-10-02T15:15:04.296Z,100665.11
2018-10-02T15:17:31.384Z,100666.34
2018-10-02T15:19:58.553Z,100653.47
2018-10-02T15:22:25.853Z,100649.09
2018-10-02T15:24:52.940Z,100647.42
2018-10-02T15:27:20.136Z,100646.63
2018-10-02T15:29:47.468Z,100640.13
2018-10-02T15:32:15.940Z,100635.91
2018-10-02T15:34:43.145Z,100637.64
2018-10-02T15:37:10.368Z,100633.70
2018-10-02T15:39:37.584Z,100626.27
2018-10-02T15:42:04.700Z,100631.97
2018-10-02T15:44:31.958Z,100627.69
2018-10-02T15:46:59.053Z,100615.67
2018-10-02T15:49:26.352Z,100620.60
2018-10-02T15:51:53.479Z,100615.82
2018-10-02T15:54:20.593Z,100609.25
2018-10-02T15:56:47.795Z,100611.00
2018-10-02T15:59:14.929Z,100608.89
2018-10-02T16:01:42.065Z,100605.30
2018-10-02T16:04:09.172Z,100613.06
2018-10-02T16:06:36.447Z,100605.78
2018-10-02T16:09:06.160Z,100604.88
2018-10-02T16:11:33.302Z,100601.42
2018-10-02T16:14:00.544Z,100593.06
2018-10-02T16:16:27.757Z,100588.17
2018-10-02T16:18:55.021Z,100591.19
2018-10-02T16:21:22.331Z,100596.95
2018-10-02T16:23:49.560Z,100593.02
2018-10-02T16:26:16.874Z,100595.14
2018-10-02T16:28:44.092Z,100601.77
2018-10-02T16:31:11.506Z,100603.80
2018-10-02T16:33:38.781Z,100608.20
2018-10-02T16:36:06.125Z,100614.78
2018-10-02T16:38:34.336Z,100607.32
2018-10-02T16:41:01.429Z,100604.19
2018-10-02T16:43:28.684Z,100622.53
2018-10-02T16:45:55.838Z,100609.27
2018-10-02T16:48:23.027Z,100608.38
2018-10-02T16:50:50.466Z,100617.14
2018-10-02T16:53:17.573Z,100614.80
2018-10-02T16:55:44.696Z,100616.17
2018-10-02T16:58:11.993Z,100607.45
2018-10-02T17:00:39.248Z,100611.37
2018-10-02T17:03:06.383Z,100610.80
2018-10-02T17:05:33.883Z,100606.02
2018-10-02T17:08:01.053Z,100602.47
2018-10-02T17:10:28.174Z,100598.09
2018-10-02T17:12:55.457Z,100594.52
2018-10-02T17:15:22.595Z,100591.14
2018-10-02T17:17:49.782Z,100586.34
2018-10-02T17:20:16.966Z,100590.14
2018-10-02T17:22:44.552Z,100588.81
2018-10-02T17:25:11.909Z,100590.52
2018-10-02T17:27:41.760Z,100584.73
2018-10-02T17:30:08.932Z,100590.77
2018-10-02T17:32:36.141Z,100589.02
2018-10-02T17:35:03.385Z,100585.53
2018-10-02T17:37:30.528Z,100587.20
2018-10-02T17:39:59.502Z,100584.58
2018-10-02T17:42:26.785Z,100585.33
2018-10-02T17:44:53.872Z,100580.13
2018-10-02T17:47:21.077Z,100601.07
2018-10-02T17:49:48.212Z,100590.65
2018-10-02T17:52:15.288Z,100593.67
2018-10-02T17:54:42.540Z,100599.09
2018-10-02T17:57:09.684Z,100607.00
2018-10-02T17:59:36.760Z,100601.71
2018-10-02T18:02:03.872Z,100602.60
2018-10-02T18:04:31.155Z,100615.25
2018-10-02T18:06:58.279Z,100612.70
2018-10-02T18:09:25.348Z,100602.28
2018-10-02T18:11:52.546Z,100597.36
2018-10-02T18:14:19.703Z,100607.91
2018-10-02T18:16:46.812Z,100608.30
2018-10-02T18:19:13.998Z,100601.02
2018-10-02T18:21:41.099Z,100604.25
2018-10-02T18:24:08.211Z,100620.97
2018-10-02T18:26:35.365Z,100609.65
2018-10-02T18:29:02.495Z,100609.61
2018-10-02T18:31:29.577Z,100616.02
2018-10-02T18:33:56.824Z,100613.77
2018-10-02T18:36:23.910Z,100614.66
2018-10-02T18:38:51.073Z,100604.50
2018-10-02T18:41:18.208Z,100608.94
2018-10-02T18:43:45.304Z,100608.44
2018-10-02T18:46:12.387Z,100603.20
2018-10-02T18:48:39.748Z,100606.64
2018-10-02T18:51:06.783Z,100614.35
2018-10-02T18:53:33.993Z,100603.02
2018-10-02T18:56:01.302Z,100598.19
2018-10-02T18:58:28.364Z,100608.66
2018-10-02T19:00:55.452Z,100607.81
2018-10-02T19:03:22.580Z,100603.02
2018-10-02T19:05:49.680Z,100605.59
2018-10-02T19:08:21.344Z,100614.28
2018-10-02T19:10:48.597Z,100609.90
2018-10-02T19:13:15.738Z,100615.62
2018-10-02T19:16:51.146Z,100609.38
2018-10-02T19:19:25.019Z,100614.44
2018-10-02T19:21:52.297Z,100621.11
2018-10-02T19:24:19.532Z,100604.47
2018-10-02T19:26:46.797Z,100616.98
2018-10-02T19:29:13.936Z,100624.08
2018-10-02T19:31:46.880Z,100620.42
2018-10-02T19:34:14.016Z,100634.41
2018-10-02T19:36:41.168Z,100630.66
2018-10-02T19:39:11.040Z,100634.99
2018-10-02T19:41:38.166Z,100619.19
2018-10-02T19:44:05.297Z,100610.70
2018-10-02T19:46:38.176Z,100608.11
2018-10-02T19:49:05.296Z,100606.74
2018-10-02T19:51:38.053Z,100605.53
2018-10-02T19:54:05.176Z,100605.53
2018-10-02T19:56:32.309Z,100606.82
2018-10-02T19:58:59.431Z,100616.72
2018-10-02T20:01:26.522Z,100624.30
2018-10-02T20:03:53.603Z,100616.80
2018-10-02T20:06:20.757Z,100609.28
2018-10-02T20:08:47.913Z,100612.41
2018-10-02T20:11:15.017Z,100621.55
2018-10-02T20:13:42.216Z,100612.35
2018-10-02T20:16:09.305Z,100610.98
2018-10-02T20:18:36.556Z,100610.28
2018-10-02T20:21:03.744Z,100606.30
2018-10-02T20:23:30.856Z,100589.75
2018-10-02T20:25:58.069Z,100601.98
2018-10-02T20:28:25.224Z,100601.17
2018-10-02T20:30:52.329Z,100604.25
2018-10-02T20:33:19.502Z,100603.41
2018-10-02T20:35:46.656Z,100605.09
2018-10-02T20:38:13.809Z,100607.16
2018-10-02T20:40:40.972Z,100601.57
2018-10-02T20:43:08.141Z,100607.19
2018-10-02T20:45:35.230Z,100613.83
2018-10-02T20:48:02.413Z,100623.65
2018-10-02T20:50:29.569Z,100620.48
2018-10-02T20:52:56.656Z,100618.30
2018-10-02T20:55:23.785Z,100623.67
2018-10-02T20:57:51.049Z,100627.94
2018-10-02T21:00:18.271Z,100640.03
2018-10-02T21:02:45.436Z,100652.00
2018-10-02T21:05:12.609Z,100646.81
2018-10-02T21:07:39.696Z,100650.75
2018-10-02T21:10:06.833Z,100641.91
2018-10-02T21:12:34.045Z,100634.73
2018-10-02T21:15:01.177Z,100632.36
2018-10-02T21:17:28.609Z,100628.42
2018-10-02T21:19:55.958Z,100634.05
2018-10-02T21:22:23.175Z,100628.73
2018-10-02T21:24:50.388Z,100634.88
2018-10-02T21:27:17.662Z,100624.79
2018-10-02T21:29:45.002Z,100628.78
2018-10-02T21:32:12.241Z,100623.05
2018-10-02T21:34:39.552Z,100624.28
2018-10-02T21:37:06.794Z,100621.72
2018-10-02T21:39:34.060Z,100616.99
2018-10-02T21:42:01.411Z,100612.33
2018-10-02T21:44:28.671Z,100624.13
2018-10-02T21:46:55.898Z,100616.24
2018-10-02T21:49:23.243Z,100613.22
2018-10-02T21:51:50.615Z,100617.66
2018-10-02T21:54:18.880Z,100603.83
2018-10-02T21:56:46.289Z,100601.05
2018-10-02T21:59:16.817Z,100602.81
2018-10-02T22:01:45.607Z,100598.94
2018-10-02T22:04:13.527Z,100598.75
2018-10-02T22:06:41.097Z,100598.34
2018-10-02T22:09:10.222Z,100585.65
2018-10-02T22:11:37.957Z,100590.91
2018-10-02T22:14:07.184Z,100590.81
2018-10-02T22:16:36.329Z,100589.59
2018-10-02T22:19:06.337Z,100594.91
2018-10-02T22:21:37.691Z,100600.97
2018-10-02T22:24:06.162Z,100595.73
2018-10-02T22:26:34.329Z,100598.81
2018-10-02T22:29:02.882Z,100598.25
2018-10-02T22:31:31.481Z,100587.38
2018-10-02T22:33:59.294Z,100583.70
2018-10-02T22:36:26.711Z,100590.91
2018-10-02T22:38:56.105Z,100583.65
2018-10-02T22:41:24.512Z,100585.38
2018-10-02T22:43:53.590Z,100585.62
2018-10-02T22:46:22.207Z,100585.17
2018-10-02T22:48:53.585Z,100590.78
2018-10-02T22:51:22.106Z,100592.94
2018-10-02T22:53:51.266Z,100592.96
2018-10-02T22:56:19.151Z,100586.34
2018-10-02T22:58:57.697Z,100589.16
2018-10-02T23:01:24.915Z,100599.68
2018-10-02T23:03:52.103Z,100592.02
2018-10-02T23:06:19.346Z,100589.91
2018-10-02T23:08:46.576Z,100581.41
2018-10-02T23:11:13.758Z,100581.93
2018-10-02T23:13:41.105Z,100585.06
2018-10-02T23:16:08.301Z,100580.64
2018-10-02T23:18:35.489Z,100581.35
2018-10-02T23:21:02.734Z,100582.66
2018-10-02T23:23:41.846Z,100584.36
2018-10-02T23:26:09.310Z,100587.89
2018-10-02T23:28:37.089Z,100578.14
2018-10-02T23:31:04.321Z,100581.22
2018-10-02T23:33:31.641Z,100582.22
2018-10-02T23:35:58.953Z,100587.28
2018-10-02T23:38:26.376Z,100596.77
2018-10-02T23:40:53.693Z,100599.88
2018-10-02T23:43:20.969Z,100594.62
2018-10-02T23:45:48.286Z,100597.19
2018-10-02T23:48:15.697Z,100605.88
2018-10-02T23:50:42.922Z,100615.05
2018-10-02T23:53:10.326Z,100608.09
2018-10-02T23:55:45.809Z,100612.33
2018-10-02T23:58:13.298Z,100614.44
